createdAt,value
2019-01-05T00:02:02.480Z,9.30
2019-01-05T00:04:36.252Z,9.30
2019-01-05T00:07:07.605Z,9.30
2019-01-05T00:09:55.243Z,9.30
2019-01-05T00:12:26.547Z,9.30
2019-01-05T00:15:03.871Z,9.30
2019-01-05T00:17:52.216Z,9.30
2019-01-05T00:20:29.710Z,9.30
2019-01-05T00:23:10.649Z,9.40
2019-01-05T00:25:58.342Z,9.40
2019-01-05T00:28:47.337Z,9.40
2019-01-05T00:31:24.573Z,9.50
2019-01-05T00:34:00.289Z,9.50
2019-01-05T00:36:33.963Z,9.50
2019-01-05T00:39:07.676Z,9.50
2019-01-05T00:41:44.629Z,9.50
2019-01-05T00:44:22.168Z,9.50
2019-01-05T00:47:02.031Z,9.50
2019-01-05T00:49:46.975Z,9.50
2019-01-05T00:52:26.016Z,9.50
2019-01-05T00:55:13.946Z,9.50
2019-01-05T00:58:00.986Z,9.50
2019-01-05T01:00:48.889Z,9.40
2019-01-05T01:03:37.838Z,9.40
2019-01-05T01:06:27.879Z,9.40
2019-01-05T01:08:59.197Z,9.30
2019-01-05T01:11:45.595Z,9.40
2019-01-05T01:14:17.033Z,9.40
2019-01-05T01:16:57.480Z,9.40
2019-01-05T01:19:31.781Z,9.40
2019-01-05T01:22:05.976Z,9.40
2019-01-05T01:24:37.310Z,9.50
2019-01-05T01:27:11.614Z,9.50
2019-01-05T01:29:43.416Z,9.50
2019-01-05T01:32:18.445Z,9.50
2019-01-05T01:35:08.224Z,9.50
2019-01-05T01:38:30.460Z,9.50
2019-01-05T01:41:17.692Z,9.50
2019-01-05T01:44:09.932Z,9.60
2019-01-05T01:46:50.510Z,9.60
2019-01-05T01:49:42.225Z,9.60
2019-01-05T01:52:18.030Z,9.60
2019-01-05T01:55:07.027Z,9.60
2019-01-05T01:57:41.642Z,9.60
2019-01-05T02:00:23.507Z,9.70
2019-01-05T02:03:18.408Z,9.70
2019-01-05T02:05:51.126Z,9.70
2019-01-05T02:08:29.581Z,9.70
2019-01-05T02:11:13.864Z,9.60
2019-01-05T02:13:53.749Z,9.60
2019-01-05T02:16:45.548Z,9.60
2019-01-05T02:19:40.786Z,9.50
2019-01-05T02:22:54.362Z,9.50
2019-01-05T02:25:48.077Z,9.50
2019-01-05T02:28:50.868Z,9.50
2019-01-05T02:31:53.952Z,9.50
2019-01-05T02:34:38.335Z,9.40
2019-01-05T02:37:34.700Z,9.40
2019-01-05T02:40:55.093Z,9.40
2019-01-05T02:44:05.027Z,9.40
2019-01-05T02:47:20.282Z,9.40
2019-01-05T02:50:22.854Z,9.40
2019-01-05T02:53:22.350Z,9.30
2019-01-05T02:56:06.648Z,9.40
2019-01-05T02:59:10.097Z,9.40
2019-01-05T03:02:28.141Z,9.40
2019-01-05T03:05:24.587Z,9.40
2019-01-05T03:08:26.792Z,9.40
2019-01-05T03:11:41.189Z,9.40
2019-01-05T03:14:16.909Z,9.30
2019-01-05T03:17:49.753Z,9.30
2019-01-05T03:21:20.916Z,9.20
2019-01-05T03:24:20.206Z,9.20
2019-01-05T03:27:32.133Z,9.10
2019-01-05T03:30:32.725Z,9.10
2019-01-05T03:33:37.228Z,9.20
2019-01-05T03:36:39.773Z,9.20
2019-01-05T03:39:41.107Z,9.20
2019-01-05T03:43:03.612Z,9.20
2019-01-05T03:46:06.035Z,9.20
2019-01-05T03:48:59.032Z,9.10
2019-01-05T03:52:22.913Z,9.10
2019-01-05T03:55:34.030Z,9.00
2019-01-05T03:58:51.785Z,9.00
2019-01-05T04:02:16.461Z,9.00
2019-01-05T04:04:57.687Z,9.00
2019-01-05T04:08:10.767Z,9.00
2019-01-05T04:11:28.374Z,9.00
2019-01-05T04:14:29.190Z,9.10
2019-01-05T04:17:34.815Z,9.10
2019-01-05T04:21:08.843Z,9.10
2019-01-05T04:23:55.885Z,9.00
2019-01-05T04:26:56.371Z,9.00
2019-01-05T04:29:51.690Z,9.00
2019-01-05T04:32:52.023Z,9.00
2019-01-05T04:35:49.843Z,9.00
2019-01-05T04:38:43.418Z,8.90
2019-01-05T04:41:25.166Z,8.90
2019-01-05T04:47:33.394Z,8.80
2019-01-05T04:50:40.417Z,8.70
2019-01-05T04:53:34.182Z,8.70
2019-01-05T04:57:15.076Z,8.70
2019-01-05T05:00:30.534Z,8.60
2019-01-05T05:03:29.658Z,8.60
2019-01-05T05:06:37.817Z,8.60
2019-01-05T05:09:48.821Z,8.50
2019-01-05T05:13:08.964Z,8.50
2019-01-05T05:16:07.151Z,8.50
2019-01-05T05:19:16.246Z,8.60
2019-01-05T05:22:29.275Z,8.60
2019-01-05T05:25:23.307Z,8.70
2019-01-05T05:28:19.791Z,8.70
2019-01-05T05:31:35.595Z,8.70
2019-01-05T05:35:02.440Z,8.80
2019-01-05T05:38:14.725Z,8.80
2019-01-05T05:41:49.335Z,8.80
2019-01-05T05:44:54.949Z,8.80
2019-01-05T05:48:05.496Z,8.70
2019-01-05T05:51:15.504Z,8.70
2019-01-05T05:54:36.353Z,8.70
2019-01-05T05:57:49.435Z,8.70
2019-01-05T06:00:55.285Z,8.80
2019-01-05T06:04:07.123Z,8.80
2019-01-05T06:07:35.051Z,8.70
2019-01-05T06:10:45.495Z,8.70
2019-01-05T06:13:41.986Z,8.80
2019-01-05T06:16:37.323Z,8.80
2019-01-05T06:19:48.860Z,8.80
2019-01-05T06:23:08.222Z,8.80
2019-01-05T06:26:36.720Z,8.80
2019-01-05T06:29:48.033Z,8.80
2019-01-05T06:33:08.936Z,8.80
2019-01-05T06:36:32.716Z,8.80
2019-01-05T06:39:23.384Z,8.80
2019-01-05T06:42:38.005Z,8.80
2019-01-05T06:45:40.252Z,8.80
2019-01-05T06:48:39.643Z,8.80
2019-01-05T06:52:14.357Z,8.80
2019-01-05T06:55:22.273Z,8.80
2019-01-05T06:58:22.788Z,8.80
2019-01-05T07:01:31.773Z,8.80
2019-01-05T07:04:37.086Z,8.90
2019-01-05T07:08:00.713Z,8.90
2019-01-05T07:11:15.499Z,8.80
2019-01-05T07:14:27.093Z,8.90
2019-01-05T07:17:34.054Z,8.90
2019-01-05T07:20:23.778Z,8.90
2019-01-05T07:23:47.843Z,9.00
2019-01-05T07:27:02.397Z,9.00
2019-01-05T07:30:33.809Z,9.00
2019-01-05T07:33:57.181Z,9.10
2019-01-05T07:37:01.594Z,9.10
2019-01-05T07:39:59.329Z,9.10
2019-01-05T07:43:11.214Z,9.10
2019-01-05T07:46:31.407Z,9.00
2019-01-05T07:49:43.202Z,9.00
2019-01-05T07:52:58.237Z,9.10
2019-01-05T07:56:06.038Z,9.10
2019-01-05T07:59:33.508Z,9.10
2019-01-05T08:02:23.753Z,9.20
2019-01-05T08:05:56.156Z,9.20
2019-01-05T08:09:12.753Z,9.30
2019-01-05T08:12:19.684Z,9.30
2019-01-05T08:15:32.333Z,9.30
2019-01-05T08:19:09.059Z,9.40
2019-01-05T08:22:23.467Z,9.40
2019-01-05T08:25:35.119Z,9.40
2019-01-05T08:28:45.231Z,9.40
2019-01-05T08:32:13.768Z,9.50
2019-01-05T08:35:21.622Z,9.50
2019-01-05T08:38:36.077Z,9.50
2019-01-05T08:42:04.354Z,9.60
2019-01-05T08:45:18.576Z,9.60
2019-01-05T08:48:30.583Z,9.70
2019-01-05T08:51:43.737Z,9.70
2019-01-05T08:55:05.265Z,9.80
2019-01-05T08:58:22.807Z,9.80
2019-01-05T09:01:31.261Z,9.80
2019-01-05T09:04:45.307Z,9.90
2019-01-05T09:07:49.913Z,9.90
2019-01-05T09:10:56.676Z,9.90
2019-01-05T09:13:40.961Z,10.00
2019-01-05T09:17:04.272Z,10.00
2019-01-05T09:20:02.071Z,10.00
2019-01-05T09:23:03.182Z,10.00
2019-01-05T09:26:32.309Z,9.90
2019-01-05T09:29:29.154Z,9.90
2019-01-05T09:32:45.390Z,9.90
2019-01-05T09:36:12.349Z,9.90
2019-01-05T09:39:28.513Z,10.00
2019-01-05T09:42:41.212Z,10.10
2019-01-05T09:45:52.860Z,10.10
2019-01-05T09:49:11.519Z,10.10
2019-01-05T09:52:34.976Z,10.10
2019-01-05T09:55:16.837Z,10.10
2019-01-05T09:58:45.438Z,10.20
2019-01-05T10:01:58.073Z,10.20
2019-01-05T10:04:45.280Z,10.10
2019-01-05T10:08:02.946Z,10.20
2019-01-05T10:10:59.085Z,10.20
2019-01-05T10:14:19.577Z,10.20
2019-01-05T10:17:48.089Z,10.10
2019-01-05T10:21:01.372Z,10.10
2019-01-05T10:24:16.847Z,10.10
2019-01-05T10:27:20.273Z,10.10
2019-01-05T10:30:36.534Z,10.10
2019-01-05T10:33:32.819Z,10.10
2019-01-05T10:36:33.780Z,10.10
2019-01-05T10:40:09.921Z,10.10
2019-01-05T10:43:25.073Z,10.10
2019-01-05T10:46:53.332Z,10.20
2019-01-05T10:50:19.338Z,10.20
2019-01-05T10:53:22.271Z,10.20
2019-01-05T10:56:18.768Z,10.20
2019-01-05T10:59:43.927Z,10.20
2019-01-05T11:02:55.466Z,10.30
2019-01-05T11:06:09.358Z,10.30
2019-01-05T11:09:17.367Z,10.40
2019-01-05T11:12:18.977Z,10.40
2019-01-05T11:15:27.557Z,10.40
2019-01-05T11:18:19.709Z,10.30
2019-01-05T11:21:34.452Z,10.40
2019-01-05T11:24:56.625Z,10.50
2019-01-05T11:28:14.539Z,10.50
2019-01-05T11:31:07.854Z,10.60
2019-01-05T11:34:01.474Z,10.60
2019-01-05T11:37:10.188Z,10.60
2019-01-05T11:40:22.120Z,10.70
2019-01-05T11:43:47.465Z,10.70
2019-01-05T11:46:55.311Z,10.70
2019-01-05T11:50:34.000Z,10.70
2019-01-05T11:54:04.688Z,10.80
2019-01-05T11:57:14.866Z,10.80
2019-01-05T12:00:34.219Z,10.80
2019-01-05T12:04:03.827Z,10.80
2019-01-05T12:07:08.154Z,10.90
2019-01-05T12:09:54.985Z,10.90
2019-01-05T12:13:01.496Z,11.00
2019-01-05T12:16:40.684Z,11.00
2019-01-05T12:20:00.221Z,11.10
2019-01-05T12:23:30.378Z,11.10
2019-01-05T12:26:43.061Z,11.10
2019-01-05T12:30:05.107Z,11.10
2019-01-05T12:33:31.513Z,11.10
2019-01-05T12:36:56.301Z,11.20
2019-01-05T12:39:59.662Z,11.20
2019-01-05T12:43:11.332Z,11.20
2019-01-05T12:46:21.465Z,11.30
2019-01-05T12:49:31.442Z,11.50
2019-01-05T12:52:46.262Z,11.60
2019-01-05T12:55:57.915Z,11.70
2019-01-05T12:59:06.536Z,11.80
2019-01-05T13:02:01.706Z,11.80
2019-01-05T13:05:16.642Z,11.80
2019-01-05T13:08:00.969Z,11.90
2019-01-05T13:11:08.450Z,11.90
2019-01-05T13:14:15.857Z,11.90
2019-01-05T13:17:37.010Z,12.00
2019-01-05T13:21:02.050Z,11.90
2019-01-05T13:24:27.351Z,11.90
2019-01-05T13:27:30.870Z,11.90
2019-01-05T13:30:35.907Z,11.90
2019-01-05T13:33:59.924Z,11.80
2019-01-05T13:37:32.420Z,11.80
2019-01-05T13:40:32.107Z,11.70
2019-01-05T13:44:09.284Z,11.70
2019-01-05T13:47:23.970Z,11.70
2019-01-05T13:50:32.224Z,11.80
2019-01-05T13:53:19.183Z,11.80
2019-01-05T13:56:00.964Z,11.80
2019-01-05T13:58:38.781Z,11.80
2019-01-05T14:01:34.903Z,11.80
2019-01-05T14:04:22.550Z,11.80
2019-01-05T14:06:53.807Z,11.80
2019-01-05T14:09:37.456Z,11.80
2019-01-05T14:12:08.775Z,11.80
2019-01-05T14:14:40.089Z,11.80
2019-01-05T14:17:26.453Z,11.80
2019-01-05T14:19:57.775Z,11.80
2019-01-05T14:22:35.018Z,11.80
2019-01-05T14:25:10.895Z,11.80
2019-01-05T14:27:42.219Z,11.80
2019-01-05T14:30:22.404Z,11.90
2019-01-05T14:33:05.708Z,11.90
2019-01-05T14:35:51.943Z,11.90
2019-01-05T14:38:23.270Z,11.90
2019-01-05T14:40:57.377Z,11.90
2019-01-05T14:43:34.481Z,11.90
2019-01-05T14:46:20.652Z,11.90
2019-01-05T14:48:51.981Z,11.90
2019-01-05T14:51:39.313Z,11.90
2019-01-05T14:54:26.727Z,11.90
2019-01-05T14:57:00.626Z,11.90
2019-01-05T14:59:48.093Z,11.90
2019-01-05T15:02:34.573Z,11.90
2019-01-05T15:05:22.196Z,11.90
2019-01-05T15:08:09.621Z,11.90
2019-01-05T15:10:43.709Z,11.90
2019-01-05T15:13:14.961Z,11.90
2019-01-05T15:15:48.688Z,11.90
2019-01-05T15:18:36.272Z,11.90
2019-01-05T15:21:13.717Z,11.90
2019-01-05T15:23:47.631Z,11.90
2019-01-05T15:26:35.422Z,11.90
2019-01-05T15:29:12.911Z,11.90
2019-01-05T15:31:44.224Z,11.90
2019-01-05T15:34:36.182Z,11.90
2019-01-05T15:37:20.892Z,11.90
2019-01-05T15:39:54.667Z,12.00
2019-01-05T15:42:33.564Z,12.00
2019-01-05T15:45:11.022Z,12.00
2019-01-05T15:47:42.301Z,12.00
2019-01-05T15:50:17.968Z,11.90
2019-01-05T15:52:49.616Z,11.90
2019-01-05T15:55:37.002Z,11.90
2019-01-05T15:58:14.583Z,11.80
2019-01-05T16:00:45.904Z,11.80
2019-01-05T16:03:30.432Z,11.80
2019-01-05T16:06:01.745Z,11.80
2019-01-05T16:08:38.897Z,11.70
2019-01-05T16:11:12.755Z,11.80
2019-01-05T16:14:01.425Z,11.70
2019-01-05T16:16:32.625Z,11.70
2019-01-05T16:19:19.166Z,11.70
2019-01-05T16:21:53.608Z,11.70
2019-01-05T16:24:36.706Z,11.60
2019-01-05T16:27:10.540Z,11.60
2019-01-05T16:29:56.711Z,11.60
2019-01-05T16:32:44.150Z,11.60
2019-01-05T16:35:30.519Z,11.60
2019-01-05T16:38:19.649Z,11.60
2019-01-05T16:40:56.848Z,11.50
2019-01-05T16:43:33.902Z,11.50
2019-01-05T16:46:07.293Z,11.50
2019-01-05T16:48:54.704Z,11.50
2019-01-05T16:51:33.607Z,11.50
2019-01-05T16:54:07.607Z,11.50
2019-01-05T16:56:55.167Z,11.50
2019-01-05T16:59:43.614Z,11.50
2019-01-05T17:02:33.387Z,11.50
2019-01-05T17:05:16.363Z,11.50
2019-01-05T17:07:54.037Z,11.50
2019-01-05T17:10:25.333Z,11.50
2019-01-05T17:13:12.742Z,11.50
2019-01-05T17:15:49.028Z,11.50
2019-01-05T17:18:22.892Z,11.50
2019-01-05T17:21:13.466Z,11.50
2019-01-05T17:24:01.088Z,11.50
2019-01-05T17:26:32.414Z,11.50
2019-01-05T17:29:20.727Z,11.50
2019-01-05T17:32:03.814Z,11.50
2019-01-05T17:34:47.009Z,11.50
2019-01-05T17:37:22.386Z,11.50
2019-01-05T17:40:04.080Z,11.50
2019-01-05T17:42:52.585Z,11.50
2019-01-05T17:45:29.755Z,11.50
2019-01-05T17:48:00.998Z,11.50
2019-01-05T17:50:47.310Z,11.50
2019-01-05T17:53:21.061Z,11.50
2019-01-05T17:55:53.736Z,11.60
2019-01-05T17:58:26.712Z,11.60
2019-01-05T18:01:14.365Z,11.60
2019-01-05T18:03:58.166Z,11.70
2019-01-05T18:06:41.100Z,11.70
2019-01-05T18:09:26.770Z,11.70
2019-01-05T18:12:12.116Z,11.70
2019-01-05T18:15:04.836Z,11.70
2019-01-05T18:17:38.841Z,11.70
2019-01-05T18:20:10.154Z,11.70
2019-01-05T18:22:44.203Z,11.70
2019-01-05T18:25:32.488Z,11.60
2019-01-05T18:28:09.921Z,11.60
2019-01-05T18:30:57.536Z,11.60
2019-01-05T18:33:28.856Z,11.50
2019-01-05T18:36:02.754Z,11.50
2019-01-05T18:38:37.010Z,11.50
2019-01-05T18:41:24.308Z,11.50
2019-01-05T18:43:55.572Z,11.40
2019-01-05T18:46:26.893Z,11.40
2019-01-05T18:48:58.178Z,11.40
2019-01-05T18:51:44.886Z,11.40
2019-01-05T18:54:31.157Z,11.40
2019-01-05T18:57:18.457Z,11.40
2019-01-05T18:59:49.668Z,11.40
2019-01-05T19:02:23.745Z,11.40
2019-01-05T19:05:11.548Z,11.40
2019-01-05T19:07:47.359Z,11.40
2019-01-05T19:10:35.510Z,11.40
2019-01-05T19:13:23.141Z,11.50
2019-01-05T19:16:11.204Z,11.50
2019-01-05T19:18:42.935Z,11.40
2019-01-05T19:21:33.058Z,11.40
2019-01-05T19:24:20.837Z,11.40
2019-01-05T19:26:52.178Z,11.40
2019-01-05T19:29:39.167Z,11.40
2019-01-05T19:32:13.338Z,11.40
2019-01-05T19:34:59.675Z,11.40
2019-01-05T19:37:49.467Z,11.50
2019-01-05T19:40:38.974Z,11.50
2019-01-05T19:43:29.092Z,11.50
2019-01-05T19:46:06.108Z,11.50
2019-01-05T19:48:37.492Z,11.50
2019-01-05T19:51:17.900Z,11.50
2019-01-05T19:53:49.475Z,11.50
2019-01-05T19:56:37.254Z,11.50
2019-01-05T19:59:17.907Z,11.60
2019-01-05T20:01:55.605Z,11.60
2019-01-05T20:04:43.367Z,11.60
2019-01-05T20:07:33.433Z,11.70
2019-01-05T20:10:09.158Z,11.70
2019-01-05T20:12:43.008Z,11.70
2019-01-05T20:15:27.702Z,11.70
2019-01-05T20:18:05.688Z,11.70
2019-01-05T20:20:37.520Z,11.70
2019-01-05T20:23:25.678Z,11.70
2019-01-05T20:26:06.075Z,11.70
2019-01-05T20:28:40.461Z,11.70
2019-01-05T20:31:29.114Z,11.70
2019-01-05T20:34:03.945Z,11.70
2019-01-05T20:36:41.526Z,11.70
2019-01-05T20:39:15.852Z,11.80
2019-01-05T20:41:53.160Z,11.80
2019-01-05T20:44:27.140Z,11.80
2019-01-05T20:47:07.716Z,11.80
2019-01-05T20:49:53.194Z,11.80
2019-01-05T20:52:27.523Z,11.80
2019-01-05T20:55:04.590Z,11.70
2019-01-05T20:57:36.249Z,11.70
2019-01-05T21:00:13.812Z,11.60
2019-01-05T21:02:45.292Z,11.60
2019-01-05T21:05:36.177Z,11.60
2019-01-05T21:08:07.769Z,11.60
2019-01-05T21:10:57.731Z,11.60
2019-01-05T21:13:36.989Z,11.60
2019-01-05T21:16:08.540Z,11.60
2019-01-05T21:18:40.790Z,11.60
2019-01-05T21:21:12.253Z,11.60
2019-01-05T21:23:53.331Z,11.60
2019-01-05T21:26:27.032Z,11.60
2019-01-05T21:29:16.294Z,11.60
2019-01-05T21:32:00.060Z,11.60
2019-01-05T21:34:46.454Z,11.60
2019-01-05T21:37:27.113Z,11.70
2019-01-05T21:40:09.958Z,11.60
2019-01-05T21:42:56.269Z,11.60
2019-01-05T21:45:29.644Z,11.60
2019-01-05T21:48:01.326Z,11.60
2019-01-05T21:50:42.143Z,11.60
2019-01-05T21:53:32.335Z,11.60
2019-01-05T21:56:19.890Z,11.60
2019-01-05T21:58:56.715Z,11.60
2019-01-05T22:01:37.624Z,11.60
2019-01-05T22:04:21.153Z,11.70
2019-01-05T22:07:09.097Z,11.70
2019-01-05T22:09:47.595Z,11.70
2019-01-05T22:12:21.937Z,11.70
2019-01-05T22:15:02.415Z,11.70
2019-01-05T22:17:34.138Z,11.80
2019-01-05T22:20:14.607Z,11.70
2019-01-05T22:23:02.961Z,11.70
2019-01-05T22:25:50.890Z,11.80
2019-01-05T22:28:29.339Z,11.70
2019-01-05T22:31:04.155Z,11.70
2019-01-05T22:33:51.996Z,11.70
2019-01-05T22:36:23.538Z,11.70
2019-01-05T22:39:15.779Z,11.80
2019-01-05T22:42:05.948Z,11.80
2019-01-05T22:44:54.463Z,11.80
2019-01-05T22:47:42.438Z,11.80
2019-01-05T22:50:30.068Z,11.80
2019-01-05T22:53:18.601Z,11.80
2019-01-05T22:55:52.370Z,11.80
2019-01-05T22:58:40.002Z,11.80
2019-01-05T23:01:11.647Z,11.70
2019-01-05T23:03:59.081Z,11.70
2019-01-05T23:06:33.163Z,11.70
2019-01-05T23:09:04.642Z,11.70
2019-01-05T23:11:35.954Z,11.70
2019-01-05T23:14:13.151Z,11.80
2019-01-05T23:16:50.188Z,11.80
2019-01-05T23:19:37.820Z,11.80
2019-01-05T23:22:25.426Z,11.80
2019-01-05T23:25:08.616Z,11.80
2019-01-05T23:27:51.808Z,11.70
2019-01-05T23:30:32.372Z,11.70
2019-01-05T23:33:03.669Z,11.70
2019-01-05T23:35:57.053Z,11.70
2019-01-05T23:38:38.639Z,11.70
2019-01-05T23:41:12.434Z,11.70
2019-01-05T23:43:46.631Z,11.70
2019-01-05T23:46:25.236Z,11.60
2019-01-05T23:49:14.415Z,11.80
2019-01-05T23:52:01.779Z,11.80
2019-01-05T23:54:35.622Z,11.80
2019-01-05T23:57:22.723Z,11.70
